sensor_id;sensor_type;location;lat;lon;timestamp;temperature;humidity
72646;DHT22;60687;53.876;10.674;2023-04-24T00:02:34;13.20;90.40
72646;DHT22;60687;53.876;10.674;2023-04-24T00:12:40;13.30;90.00
72646;DHT22;60687;53.876;10.674;2023-04-24T00:22:42;13.30;89.60
72646;DHT22;60687;53.876;10.674;2023-04-24T00:32:46;13.30;89.80
72646;DHT22;60687;53.876;10.674;2023-04-24T00:42:48;13.30;92.20
72646;DHT22;60687;53.876;10.674;2023-04-24T00:52:52;13.20;93.20
72646;DHT22;60687;53.876;10.674;2023-04-24T01:02:55;13.10;95.00
72646;DHT22;60687;53.876;10.674;2023-04-24T01:13:01;13.10;94.70
72646;DHT22;60687;53.876;10.674;2023-04-24T01:23:05;13.00;96.80
72646;DHT22;60687;53.876;10.674;2023-04-24T01:33:07;12.90;98.90
72646;DHT22;60687;53.876;10.674;2023-04-24T01:43:11;12.80;99.60
72646;DHT22;60687;53.876;10.674;2023-04-24T01:53:14;12.70;99.90
72646;DHT22;60687;53.876;10.674;2023-04-24T02:03:18;12.70;99.90
72646;DHT22;60687;53.876;10.674;2023-04-24T02:13:23;12.70;99.90
72646;DHT22;60687;53.876;10.674;2023-04-24T02:23:27;12.60;99.90
72646;DHT22;60687;53.876;10.674;2023-04-24T02:33:29;12.60;99.90
72646;DHT22;60687;53.876;10.674;2023-04-24T02:43:33;12.50;99.90
72646;DHT22;60687;53.876;10.674;2023-04-24T02:53:35;12.50;99.90
72646;DHT22;60687;53.876;10.674;2023-04-24T03:03:54;12.40;99.90
72646;DHT22;60687;53.876;10.674;2023-04-24T03:13:56;12.30;99.90
72646;DHT22;60687;53.876;10.674;2023-04-24T03:24:00;12.30;99.90
72646;DHT22;60687;53.876;10.674;2023-04-24T03:34:03;12.20;99.90
72646;DHT22;60687;53.876;10.674;2023-04-24T03:44:09;12.10;99.90
72646;DHT22;60687;53.876;10.674;2023-04-24T03:54:11;12.00;99.90
72646;DHT22;60687;53.876;10.674;2023-04-24T04:04:17;11.90;99.90
72646;DHT22;60687;53.876;10.674;2023-04-24T04:14:20;11.90;99.90
72646;DHT22;60687;53.876;10.674;2023-04-24T04:24:24;11.80;99.90
72646;DHT22;60687;53.876;10.674;2023-04-24T04:34:28;11.70;99.90
72646;DHT22;60687;53.876;10.674;2023-04-24T04:44:36;11.60;99.90
72646;DHT22;60687;53.876;10.674;2023-04-24T04:54:41;11.70;99.90
72646;DHT22;60687;53.876;10.674;2023-04-24T05:04:46;11.70;99.90
72646;DHT22;60687;53.876;10.674;2023-04-24T05:14:49;11.60;99.90
72646;DHT22;60687;53.876;10.674;2023-04-24T05:24:53;11.70;99.90
72646;DHT22;60687;53.876;10.674;2023-04-24T05:35:17;11.70;99.90
72646;DHT22;60687;53.876;10.674;2023-04-24T05:45:21;11.80;98.60
72646;DHT22;60687;53.876;10.674;2023-04-24T05:55:23;11.90;98.20
72646;DHT22;60687;53.876;10.674;2023-04-24T06:05:28;12.00;96.30
72646;DHT22;60687;53.876;10.674;2023-04-24T06:15:30;12.00;94.50
72646;DHT22;60687;53.876;10.674;2023-04-24T06:25:43;12.30;92.40
72646;DHT22;60687;53.876;10.674;2023-04-24T06:35:47;12.50;91.80
72646;DHT22;60687;53.876;10.674;2023-04-24T06:45:50;12.70;90.50
72646;DHT22;60687;53.876;10.674;2023-04-24T06:55:53;13.10;86.60
72646;DHT22;60687;53.876;10.674;2023-04-24T07:05:57;13.30;84.60
72646;DHT22;60687;53.876;10.674;2023-04-24T07:16:01;13.60;81.60
72646;DHT22;60687;53.876;10.674;2023-04-24T07:26:06;13.80;78.20
72646;DHT22;60687;53.876;10.674;2023-04-24T07:36:09;14.00;76.20
72646;DHT22;60687;53.876;10.674;2023-04-24T07:46:17;14.10;74.90
72646;DHT22;60687;53.876;10.674;2023-04-24T07:56:20;14.20;72.90
72646;DHT22;60687;53.876;10.674;2023-04-24T08:06:23;14.50;69.50
72646;DHT22;60687;53.876;10.674;2023-04-24T08:16:32;14.50;71.70
72646;DHT22;60687;53.876;10.674;2023-04-24T08:26:36;14.60;68.30
72646;DHT22;60687;53.876;10.674;2023-04-24T08:36:39;14.60;69.40
72646;DHT22;60687;53.876;10.674;2023-04-24T08:46:44;14.60;68.80
72646;DHT22;60687;53.876;10.674;2023-04-24T08:56:50;14.70;66.70
72646;DHT22;60687;53.876;10.674;2023-04-24T09:06:57;14.70;65.40
72646;DHT22;60687;53.876;10.674;2023-04-24T09:17:00;14.70;63.60
72646;DHT22;60687;53.876;10.674;2023-04-24T09:27:04;14.70;63.60
72646;DHT22;60687;53.876;10.674;2023-04-24T09:37:06;14.60;62.80
72646;DHT22;60687;53.876;10.674;2023-04-24T09:47:10;14.60;63.40
72646;DHT22;60687;53.876;10.674;2023-04-24T09:57:14;14.70;61.50
72646;DHT22;60687;53.876;10.674;2023-04-24T10:07:18;14.80;60.30
72646;DHT22;60687;53.876;10.674;2023-04-24T10:17:22;14.70;62.20
72646;DHT22;60687;53.876;10.674;2023-04-24T10:27:27;15.00;62.10
72646;DHT22;60687;53.876;10.674;2023-04-24T10:37:36;15.50;58.70
72646;DHT22;60687;53.876;10.674;2023-04-24T10:47:42;15.20;57.70
72646;DHT22;60687;53.876;10.674;2023-04-24T10:58:09;15.10;60.60
72646;DHT22;60687;53.876;10.674;2023-04-24T11:08:15;15.10;58.40
72646;DHT22;60687;53.876;10.674;2023-04-24T11:18:18;15.20;57.50
72646;DHT22;60687;53.876;10.674;2023-04-24T11:28:24;15.30;58.10
72646;DHT22;60687;53.876;10.674;2023-04-24T11:38:27;15.90;56.80
72646;DHT22;60687;53.876;10.674;2023-04-24T11:48:34;16.00;55.90
72646;DHT22;60687;53.876;10.674;2023-04-24T11:58:41;16.00;54.90
72646;DHT22;60687;53.876;10.674;2023-04-24T12:08:47;15.90;56.80
72646;DHT22;60687;53.876;10.674;2023-04-24T12:18:51;16.00;55.00
72646;DHT22;60687;53.876;10.674;2023-04-24T12:28:55;16.10;55.40
72646;DHT22;60687;53.876;10.674;2023-04-24T12:38:57;16.00;54.90
72646;DHT22;60687;53.876;10.674;2023-04-24T12:49:01;15.70;55.60
72646;DHT22;60687;53.876;10.674;2023-04-24T12:59:03;15.80;55.70
72646;DHT22;60687;53.876;10.674;2023-04-24T13:09:07;15.80;54.50
72646;DHT22;60687;53.876;10.674;2023-04-24T13:19:10;15.60;55.80
72646;DHT22;60687;53.876;10.674;2023-04-24T13:29:14;15.80;54.90
72646;DHT22;60687;53.876;10.674;2023-04-24T13:39:17;15.80;54.80
72646;DHT22;60687;53.876;10.674;2023-04-24T13:49:29;15.60;54.40
72646;DHT22;60687;53.876;10.674;2023-04-24T13:59:35;15.40;55.60
72646;DHT22;60687;53.876;10.674;2023-04-24T14:09:40;15.20;54.70
72646;DHT22;60687;53.876;10.674;2023-04-24T14:19:42;15.10;56.50
72646;DHT22;60687;53.876;10.674;2023-04-24T14:29:46;14.80;58.30
72646;DHT22;60687;53.876;10.674;2023-04-24T14:39:49;14.60;61.50
72646;DHT22;60687;53.876;10.674;2023-04-24T14:49:58;14.40;65.10
72646;DHT22;60687;53.876;10.674;2023-04-24T15:00:02;14.30;64.60
72646;DHT22;60687;53.876;10.674;2023-04-24T15:10:12;14.20;64.60
72646;DHT22;60687;53.876;10.674;2023-04-24T15:20:15;14.00;65.10
72646;DHT22;60687;53.876;10.674;2023-04-24T15:30:21;13.90;67.70
72646;DHT22;60687;53.876;10.674;2023-04-24T15:40:23;13.90;67.80
72646;DHT22;60687;53.876;10.674;2023-04-24T15:50:27;13.70;67.40
72646;DHT22;60687;53.876;10.674;2023-04-24T16:00:29;13.50;68.70
72646;DHT22;60687;53.876;10.674;2023-04-24T16:10:35;13.30;71.30
72646;DHT22;60687;53.876;10.674;2023-04-24T16:20:37;12.80;81.50
72646;DHT22;60687;53.876;10.674;2023-04-24T16:30:41;12.50;91.70
72646;DHT22;60687;53.876;10.674;2023-04-24T16:40:43;12.20;93.10
72646;DHT22;60687;53.876;10.674;2023-04-24T16:50:47;12.00;93.70
72646;DHT22;60687;53.876;10.674;2023-04-24T17:00:49;11.80;95.00
72646;DHT22;60687;53.876;10.674;2023-04-24T17:10:53;11.50;95.60
72646;DHT22;60687;53.876;10.674;2023-04-24T17:20:55;11.20;94.60
72646;DHT22;60687;53.876;10.674;2023-04-24T17:31:00;10.90;94.20
72646;DHT22;60687;53.876;10.674;2023-04-24T17:41:03;10.60;94.40
72646;DHT22;60687;53.876;10.674;2023-04-24T17:51:08;10.50;94.10
72646;DHT22;60687;53.876;10.674;2023-04-24T18:01:11;10.20;92.60
72646;DHT22;60687;53.876;10.674;2023-04-24T18:11:15;10.10;92.70
72646;DHT22;60687;53.876;10.674;2023-04-24T18:21:17;10.00;94.00
72646;DHT22;60687;53.876;10.674;2023-04-24T18:31:21;9.90;94.90
72646;DHT22;60687;53.876;10.674;2023-04-24T18:41:23;9.70;97.50
72646;DHT22;60687;53.876;10.674;2023-04-24T18:51:27;9.60;96.80
72646;DHT22;60687;53.876;10.674;2023-04-24T19:01:30;9.50;99.80
72646;DHT22;60687;53.876;10.674;2023-04-24T19:11:34;9.50;99.90
72646;DHT22;60687;53.876;10.674;2023-04-24T19:21:45;9.30;99.90
72646;DHT22;60687;53.876;10.674;2023-04-24T19:31:51;9.30;99.90
72646;DHT22;60687;53.876;10.674;2023-04-24T19:41:54;9.30;99.90
72646;DHT22;60687;53.876;10.674;2023-04-24T19:51:58;9.40;99.90
72646;DHT22;60687;53.876;10.674;2023-04-24T20:02:00;9.30;99.90
72646;DHT22;60687;53.876;10.674;2023-04-24T20:12:04;9.40;99.90
72646;DHT22;60687;53.876;10.674;2023-04-24T20:22:07;9.40;99.90
72646;DHT22;60687;53.876;10.674;2023-04-24T20:32:31;9.40;99.90
72646;DHT22;60687;53.876;10.674;2023-04-24T20:43:06;9.30;99.90
72646;DHT22;60687;53.876;10.674;2023-04-24T20:53:12;9.30;99.90
72646;DHT22;60687;53.876;10.674;2023-04-24T21:03:15;9.40;99.90
72646;DHT22;60687;53.876;10.674;2023-04-24T21:13:18;9.40;99.90
72646;DHT22;60687;53.876;10.674;2023-04-24T21:23:21;9.40;99.90
72646;DHT22;60687;53.876;10.674;2023-04-24T21:33:24;9.40;99.90
72646;DHT22;60687;53.876;10.674;2023-04-24T21:43:27;9.40;99.90
72646;DHT22;60687;53.876;10.674;2023-04-24T21:53:31;9.30;99.90
72646;DHT22;60687;53.876;10.674;2023-04-24T22:03:33;9.30;99.90
72646;DHT22;60687;53.876;10.674;2023-04-24T22:13:36;9.30;99.90
72646;DHT22;60687;53.876;10.674;2023-04-24T22:23:39;9.30;99.90
72646;DHT22;60687;53.876;10.674;2023-04-24T22:33:43;9.30;99.90
72646;DHT22;60687;53.876;10.674;2023-04-24T22:43:46;9.30;99.90
72646;DHT22;60687;53.876;10.674;2023-04-24T22:53:50;9.20;99.90
72646;DHT22;60687;53.876;10.674;2023-04-24T23:03:52;9.20;99.90
72646;DHT22;60687;53.876;10.674;2023-04-24T23:13:56;9.30;99.90
72646;DHT22;60687;53.876;10.674;2023-04-24T23:23:58;9.20;99.90
72646;DHT22;60687;53.876;10.674;2023-04-24T23:34:02;9.20;99.90
72646;DHT22;60687;53.876;10.674;2023-04-24T23:44:04;9.10;99.90
72646;DHT22;60687;53.876;10.674;2023-04-24T23:54:08;9.10;99.90
